Time;durP1;ratioP1;P1;durP2;ratioP2;P2;SDS_P1;SDS_P2;PMS_P1;PMS_P2;Temp;Humidity;BMP_temperature;BMP_pressure;BME280_temperature;BME280_humidity;BME280_pressure;Samples;Min_cycle;Max_cycle;Signal;HPM_P1;HPM_P2
2021/05/22 00:00:25;;;;;;;11.80;1.90;;;;;;;;;;5061608;28;20208;-81
2021/05/22 00:02:51;;;;;;;3.60;1.55;;;;;;;;;;5063256;28;20435;-81
2021/05/22 00:05:17;;;;;;;7.20;1.65;;;;;;;;;;5051156;28;20184;-81
2021/05/22 00:07:43;;;;;;;8.82;2.95;;;;;;;;;;5050000;28;20178;-78
2021/05/22 00:10:11;;;;;;;6.85;2.28;;;;;;;;;;5053748;28;20247;-80
2021/05/22 00:12:40;;;;;;;6.32;2.28;;;;;;;;;;5054168;28;20178;-81
2021/05/22 00:15:08;;;;;;;4.75;1.92;;;;;;;;;;5054676;28;20233;-83
2021/05/22 00:17:34;;;;;;;6.72;1.40;;;;;;;;;;5053490;28;20209;-84
2021/05/22 00:20:00;;;;;;;7.88;1.75;;;;;;;;;;5064591;28;20185;-82
2021/05/22 00:22:26;;;;;;;6.20;1.85;;;;;;;;;;5050836;28;20259;-81
2021/05/22 00:24:52;;;;;;;10.93;2.05;;;;;;;;;;5053619;28;20188;-81
2021/05/22 00:27:18;;;;;;;4.90;1.70;;;;;;;;;;5054593;28;20186;-80
2021/05/22 00:29:44;;;;;;;3.63;1.58;;;;;;;;;;5054246;28;20185;-84
2021/05/22 00:32:10;;;;;;;3.67;1.80;;;;;;;;;;5050145;28;20181;-80
2021/05/22 00:34:36;;;;;;;6.00;1.23;;;;;;;;;;5048825;28;20196;-80
2021/05/22 00:37:03;;;;;;;3.50;1.63;;;;;;;;;;5063028;28;20295;-81
2021/05/22 00:39:29;;;;;;;5.45;1.52;;;;;;;;;;5060765;28;20435;-81
2021/05/22 00:41:54;;;;;;;8.05;1.83;;;;;;;;;;5062564;28;20201;-81
2021/05/22 00:44:21;;;;;;;3.35;1.35;;;;;;;;;;5065737;28;20189;-82
2021/05/22 00:46:47;;;;;;;5.55;1.70;;;;;;;;;;5064011;28;20200;-82
2021/05/22 00:49:13;;;;;;;5.60;1.50;;;;;;;;;;5051081;28;20257;-82
2021/05/22 00:51:39;;;;;;;5.07;1.60;;;;;;;;;;5069071;28;20189;-82
2021/05/22 00:54:05;;;;;;;4.13;1.52;;;;;;;;;;5068569;28;20190;-85
2021/05/22 00:56:31;;;;;;;7.20;1.70;;;;;;;;;;5064811;28;20209;-82
2021/05/22 00:58:57;;;;;;;7.30;1.80;;;;;;;;;;5048071;28;20185;-82
2021/05/22 01:01:25;;;;;;;5.30;2.83;;;;;;;;;;5050907;28;20189;-82
2021/05/22 01:03:53;;;;;;;6.10;1.60;;;;;;;;;;5068449;28;20645;-84
2021/05/22 01:06:19;;;;;;;11.05;3.30;;;;;;;;;;5059297;28;20197;-81
2021/05/22 01:08:46;;;;;;;5.85;1.83;;;;;;;;;;5063282;28;20185;-82
2021/05/22 01:11:14;;;;;;;11.40;2.60;;;;;;;;;;5067648;28;20236;-83
2021/05/22 01:13:41;;;;;;;6.47;1.92;;;;;;;;;;5064112;28;20179;-83
2021/05/22 01:16:08;;;;;;;8.20;1.77;;;;;;;;;;5063838;28;20196;-82
2021/05/22 01:18:34;;;;;;;4.55;1.60;;;;;;;;;;5063434;28;20219;-82
2021/05/22 01:21:04;;;;;;;6.25;2.10;;;;;;;;;;5060835;28;20253;-82
2021/05/22 01:23:30;;;;;;;5.97;2.00;;;;;;;;;;5071891;28;20544;-81
2021/05/22 01:25:56;;;;;;;3.60;1.70;;;;;;;;;;5062565;28;20279;-83
2021/05/22 01:28:23;;;;;;;5.70;1.50;;;;;;;;;;5064859;28;20419;-82
2021/05/22 01:30:49;;;;;;;8.80;1.63;;;;;;;;;;5058413;28;20450;-83
2021/05/22 01:33:16;;;;;;;5.72;1.88;;;;;;;;;;5058794;28;20196;-79
2021/05/22 01:35:43;;;;;;;4.20;2.20;;;;;;;;;;5062759;28;20721;-82
2021/05/22 01:38:09;;;;;;;8.43;1.73;;;;;;;;;;5059586;28;20523;-81
2021/05/22 01:40:35;;;;;;;5.85;1.83;;;;;;;;;;5064055;28;20201;-81
2021/05/22 01:43:02;;;;;;;4.05;1.50;;;;;;;;;;5063565;28;20232;-82
2021/05/22 01:45:30;;;;;;;5.38;1.70;;;;;;;;;;5062338;28;20679;-82
2021/05/22 01:47:57;;;;;;;5.72;1.45;;;;;;;;;;5064869;28;20189;-81
2021/05/22 01:50:24;;;;;;;4.47;1.73;;;;;;;;;;5061462;28;20181;-82
2021/05/22 01:52:54;;;;;;;6.22;1.75;;;;;;;;;;5058680;28;20177;-80
2021/05/22 01:55:21;;;;;;;6.53;2.50;;;;;;;;;;5068328;28;20654;-83
2021/05/22 01:57:47;;;;;;;8.32;3.38;;;;;;;;;;5058396;28;20196;-81
2021/05/22 02:00:13;;;;;;;6.70;1.75;;;;;;;;;;5057718;28;20205;-81
2021/05/22 02:03:00;;;;;;;13.48;1.95;;;;;;;;;;5071596;28;20249;-82
2021/05/22 02:05:26;;;;;;;6.90;1.83;;;;;;;;;;5054257;28;20216;-82
2021/05/22 02:07:53;;;;;;;6.57;1.58;;;;;;;;;;5058042;28;20252;-81
2021/05/22 02:10:20;;;;;;;6.93;1.80;;;;;;;;;;5059224;28;20216;-83
2021/05/22 02:12:47;;;;;;;8.50;1.55;;;;;;;;;;5058953;28;20216;-81
2021/05/22 02:15:14;;;;;;;4.55;1.45;;;;;;;;;;5057328;28;20173;-81
2021/05/22 02:17:41;;;;;;;6.15;1.38;;;;;;;;;;5072796;28;20205;-83
2021/05/22 02:20:09;;;;;;;5.43;1.40;;;;;;;;;;5063140;28;20177;-82
2021/05/22 02:22:38;;;;;;;6.55;1.67;;;;;;;;;;5062302;28;20180;-80
2021/05/22 02:25:04;;;;;;;7.43;2.00;;;;;;;;;;5076802;28;20173;-81
2021/05/22 02:27:31;;;;;;;7.82;1.90;;;;;;;;;;5057505;28;20201;-82
2021/05/22 02:29:57;;;;;;;6.47;2.30;;;;;;;;;;5055946;28;20239;-84
2021/05/22 02:32:24;;;;;;;5.00;1.75;;;;;;;;;;5060075;28;20224;-82
2021/05/22 02:34:54;;;;;;;6.68;2.22;;;;;;;;;;5057006;28;20215;-81
2021/05/22 02:37:21;;;;;;;6.78;1.60;;;;;;;;;;5062644;28;20220;-81
2021/05/22 02:39:51;;;;;;;6.57;1.73;;;;;;;;;;5062923;28;20177;-83
2021/05/22 02:42:18;;;;;;;2.95;1.73;;;;;;;;;;5062666;28;20181;-81
2021/05/22 02:44:46;;;;;;;9.23;2.22;;;;;;;;;;5057530;28;20188;-84
2021/05/22 02:47:12;;;;;;;10.18;2.03;;;;;;;;;;5058151;28;20686;-83
2021/05/22 02:49:41;;;;;;;7.05;1.80;;;;;;;;;;5057833;28;20173;-82
2021/05/22 02:52:08;;;;;;;5.07;1.92;;;;;;;;;;5061528;28;20177;-82
2021/05/22 02:54:39;;;;;;;8.70;2.10;;;;;;;;;;5058167;28;20189;-82
2021/05/22 02:57:05;;;;;;;7.85;2.10;;;;;;;;;;5058589;28;20201;-84
2021/05/22 02:59:32;;;;;;;8.00;2.15;;;;;;;;;;5061577;28;20246;-84
2021/05/22 03:01:58;;;;;;;11.32;2.15;;;;;;;;;;5061283;28;20618;-80
2021/05/22 03:04:24;;;;;;;6.30;1.85;;;;;;;;;;5063636;28;20188;-84
2021/05/22 03:06:50;;;;;;;5.50;1.52;;;;;;;;;;5059392;28;20238;-82
2021/05/22 03:09:16;;;;;;;7.00;2.38;;;;;;;;;;5058480;28;20323;-81
2021/05/22 03:11:42;;;;;;;10.63;2.38;;;;;;;;;;5068033;28;20270;-82
2021/05/22 03:14:08;;;;;;;6.00;1.90;;;;;;;;;;5061764;28;20268;-82
2021/05/22 03:16:34;;;;;;;5.82;1.80;;;;;;;;;;5074772;28;20467;-82
2021/05/22 03:19:01;;;;;;;4.68;2.10;;;;;;;;;;5063286;28;20244;-86
2021/05/22 03:21:27;;;;;;;6.50;2.05;;;;;;;;;;5060369;28;20189;-82
2021/05/22 03:23:53;;;;;;;8.30;2.58;;;;;;;;;;5065363;28;20198;-83
2021/05/22 03:26:19;;;;;;;9.30;2.38;;;;;;;;;;5065958;28;20194;-83
2021/05/22 03:28:45;;;;;;;5.38;2.20;;;;;;;;;;5080872;28;20250;-77
2021/05/22 03:31:11;;;;;;;5.03;1.63;;;;;;;;;;5062566;28;20658;-80
2021/05/22 03:33:37;;;;;;;7.00;1.60;;;;;;;;;;5060480;28;20785;-80
2021/05/22 03:36:04;;;;;;;6.05;2.20;;;;;;;;;;5061438;28;20201;-80
2021/05/22 03:38:30;;;;;;;5.60;1.80;;;;;;;;;;5064740;28;20166;-85
2021/05/22 03:40:56;;;;;;;3.70;1.53;;;;;;;;;;5061154;28;20200;-81
2021/05/22 03:43:22;;;;;;;8.75;3.03;;;;;;;;;;5065319;28;20411;-82
2021/05/22 03:45:48;;;;;;;9.32;2.60;;;;;;;;;;5060013;28;20356;-80
2021/05/22 03:48:14;;;;;;;4.53;1.65;;;;;;;;;;5060241;28;20235;-81
2021/05/22 03:50:40;;;;;;;11.15;3.08;;;;;;;;;;5061359;28;20177;-80
2021/05/22 03:53:08;;;;;;;4.90;1.67;;;;;;;;;;5061332;28;20235;-81
2021/05/22 03:55:34;;;;;;;6.85;2.35;;;;;;;;;;5075691;28;20430;-81
2021/05/22 03:58:00;;;;;;;12.77;2.40;;;;;;;;;;5065663;28;20177;-84
2021/05/22 04:00:26;;;;;;;7.93;2.10;;;;;;;;;;5065493;28;20269;-85
2021/05/22 04:02:52;;;;;;;5.63;2.05;;;;;;;;;;5065176;28;20238;-82
2021/05/22 04:05:18;;;;;;;5.17;1.70;;;;;;;;;;5079451;28;20174;-80
2021/05/22 04:07:44;;;;;;;6.43;2.20;;;;;;;;;;5075965;28;20424;-82
2021/05/22 04:10:10;;;;;;;7.37;2.17;;;;;;;;;;5066028;28;20596;-80
2021/05/22 04:12:36;;;;;;;4.47;2.42;;;;;;;;;;5060700;28;20435;-83
2021/05/22 04:15:03;;;;;;;11.93;2.05;;;;;;;;;;5061502;28;20268;-83
2021/05/22 04:17:29;;;;;;;8.43;2.72;;;;;;;;;;5063469;28;20725;-82
2021/05/22 04:19:55;;;;;;;8.80;2.60;;;;;;;;;;5060021;28;20189;-81
2021/05/22 04:22:21;;;;;;;9.98;2.55;;;;;;;;;;5065284;28;20424;-84
2021/05/22 04:24:47;;;;;;;12.93;3.42;;;;;;;;;;5061389;28;20185;-82
2021/05/22 04:27:13;;;;;;;9.60;2.33;;;;;;;;;;5059459;28;20204;-84
2021/05/22 04:29:39;;;;;;;7.25;1.70;;;;;;;;;;5074568;28;20432;-80
2021/05/22 04:32:05;;;;;;;5.57;2.10;;;;;;;;;;5065417;28;20188;-80
2021/05/22 04:34:31;;;;;;;15.82;2.55;;;;;;;;;;5065974;28;20181;-82
2021/05/22 04:36:57;;;;;;;8.33;2.20;;;;;;;;;;5060418;28;20216;-82
2021/05/22 04:39:23;;;;;;;10.48;3.97;;;;;;;;;;5064872;28;20443;-83
2021/05/22 04:41:49;;;;;;;9.68;2.10;;;;;;;;;;5062747;28;20189;-83
2021/05/22 04:44:15;;;;;;;9.77;2.60;;;;;;;;;;5061604;28;20180;-81
2021/05/22 04:46:41;;;;;;;10.67;3.13;;;;;;;;;;5059033;28;20185;-82
2021/05/22 04:49:07;;;;;;;7.13;2.10;;;;;;;;;;5065694;28;20474;-82
2021/05/22 04:51:33;;;;;;;5.70;2.00;;;;;;;;;;5059371;28;20220;-83
2021/05/22 04:54:01;;;;;;;3.88;2.45;;;;;;;;;;5061290;28;20201;-83
2021/05/22 04:56:27;;;;;;;8.07;2.10;;;;;;;;;;5061777;28;20287;-81
2021/05/22 04:58:53;;;;;;;7.70;3.20;;;;;;;;;;5063312;28;20546;-81
2021/05/22 05:01:19;;;;;;;6.00;2.80;;;;;;;;;;5065431;28;20181;-80
2021/05/22 05:03:45;;;;;;;5.90;2.00;;;;;;;;;;5059292;28;20455;-80
2021/05/22 05:06:11;;;;;;;4.90;2.00;;;;;;;;;;5059054;28;20446;-81
2021/05/22 05:08:37;;;;;;;11.20;2.30;;;;;;;;;;5073565;28;20192;-81
2021/05/22 05:11:03;;;;;;;8.13;2.20;;;;;;;;;;5064525;28;20220;-84
2021/05/22 05:13:31;;;;;;;10.43;1.90;;;;;;;;;;5061044;28;20189;-84
2021/05/22 05:15:57;;;;;;;5.10;1.92;;;;;;;;;;5058239;28;20224;-82
2021/05/22 05:18:23;;;;;;;8.70;2.45;;;;;;;;;;5063718;28;20181;-82
2021/05/22 05:20:49;;;;;;;13.60;2.70;;;;;;;;;;5060499;28;20184;-82
2021/05/22 05:23:15;;;;;;;6.77;2.53;;;;;;;;;;5060576;28;20446;-81
2021/05/22 05:25:41;;;;;;;10.27;2.78;;;;;;;;;;5058035;28;20443;-81
2021/05/22 05:28:07;;;;;;;6.93;1.50;;;;;;;;;;5065068;28;20169;-83
2021/05/22 05:30:33;;;;;;;7.43;2.42;;;;;;;;;;5058721;28;20192;-83
2021/05/22 05:32:59;;;;;;;7.30;1.60;;;;;;;;;;5060657;28;20212;-82
2021/05/22 05:35:25;;;;;;;15.02;2.65;;;;;;;;;;5061356;28;20212;-81
2021/05/22 05:37:51;;;;;;;7.82;2.72;;;;;;;;;;5073680;28;20200;-84
2021/05/22 05:40:19;;;;;;;7.10;2.20;;;;;;;;;;5059067;28;20636;-82
2021/05/22 05:42:46;;;;;;;17.88;2.42;;;;;;;;;;5059561;28;20184;-83
2021/05/22 05:45:12;;;;;;;4.63;1.63;;;;;;;;;;5058695;28;20663;-79
2021/05/22 05:47:38;;;;;;;7.32;2.13;;;;;;;;;;5062744;28;20193;-80
2021/05/22 05:50:04;;;;;;;4.73;2.60;;;;;;;;;;5073590;28;20177;-82
2021/05/22 05:52:30;;;;;;;8.27;1.90;;;;;;;;;;5063015;28;20404;-81
2021/05/22 05:54:56;;;;;;;6.37;2.27;;;;;;;;;;5059470;28;20251;-80
2021/05/22 05:57:22;;;;;;;5.20;2.23;;;;;;;;;;5062551;28;20471;-82
2021/05/22 05:59:48;;;;;;;8.83;2.37;;;;;;;;;;5061887;28;20431;-83
2021/05/22 06:02:14;;;;;;;5.07;2.20;;;;;;;;;;5072961;28;20464;-81
2021/05/22 06:04:40;;;;;;;6.03;1.90;;;;;;;;;;5062106;28;20415;-84
2021/05/22 06:07:06;;;;;;;8.97;2.43;;;;;;;;;;5059655;28;20420;-81
2021/05/22 06:09:32;;;;;;;5.57;1.90;;;;;;;;;;5057683;28;20451;-81
2021/05/22 06:11:59;;;;;;;7.57;1.90;;;;;;;;;;5063260;28;20215;-83
2021/05/22 06:14:30;;;;;;;12.40;2.42;;;;;;;;;;5078719;28;20197;-82
2021/05/22 06:16:56;;;;;;;10.80;1.85;;;;;;;;;;5072738;28;24841;-81
2021/05/22 06:19:22;;;;;;;6.50;2.38;;;;;;;;;;5058469;28;20169;-84
2021/05/22 06:21:48;;;;;;;6.03;2.35;;;;;;;;;;5058884;28;20209;-84
2021/05/22 06:24:14;;;;;;;6.00;2.27;;;;;;;;;;5064960;28;20177;-84
2021/05/22 06:26:40;;;;;;;5.60;1.50;;;;;;;;;;5062033;28;20853;-83
2021/05/22 06:29:06;;;;;;;5.30;1.70;;;;;;;;;;5058487;28;20439;-82
2021/05/22 06:31:33;;;;;;;4.10;2.00;;;;;;;;;;5059337;28;20185;-84
2021/05/22 06:33:59;;;;;;;5.20;1.63;;;;;;;;;;5062921;28;20195;-82
2021/05/22 06:36:27;;;;;;;4.75;2.00;;;;;;;;;;5057869;28;20666;-83
2021/05/22 06:38:53;;;;;;;11.13;2.75;;;;;;;;;;5060472;28;20176;-81
2021/05/22 06:41:19;;;;;;;7.63;1.60;;;;;;;;;;5060217;28;20188;-81
2021/05/22 06:43:45;;;;;;;10.57;2.63;;;;;;;;;;5057654;28;20208;-83
2021/05/22 06:48:37;;;;;;;4.50;1.73;;;;;;;;;;5060835;28;20542;-84
2021/05/22 06:51:03;;;;;;;5.50;1.90;;;;;;;;;;5062877;28;20436;-84
2021/05/22 06:53:32;;;;;;;5.03;1.85;;;;;;;;;;5074547;28;20447;-81
2021/05/22 06:55:58;;;;;;;6.45;2.05;;;;;;;;;;5065747;28;20222;-84
2021/05/22 06:58:25;;;;;;;3.30;1.70;;;;;;;;;;5067894;28;20173;-81
2021/05/22 07:00:51;;;;;;;7.50;2.05;;;;;;;;;;5061285;28;20233;-81
2021/05/22 07:03:17;;;;;;;4.00;1.90;;;;;;;;;;5061129;28;20193;-81
2021/05/22 07:05:43;;;;;;;5.78;1.77;;;;;;;;;;5080995;28;20180;-80
2021/05/22 07:08:09;;;;;;;7.30;1.77;;;;;;;;;;5076567;28;20193;-81
2021/05/22 07:10:36;;;;;;;5.10;1.73;;;;;;;;;;5066172;28;20251;-80
2021/05/22 07:13:02;;;;;;;2.40;1.20;;;;;;;;;;5080994;28;20201;-82
2021/05/22 07:15:29;;;;;;;3.90;1.70;;;;;;;;;;5066428;28;20177;-83
2021/05/22 07:17:55;;;;;;;13.68;2.50;;;;;;;;;;5063110;28;20204;-81
2021/05/22 07:20:21;;;;;;;6.55;2.00;;;;;;;;;;5076307;28;20181;-79
2021/05/22 07:22:50;;;;;;;3.83;1.20;;;;;;;;;;5066696;28;20269;-85
2021/05/22 07:25:16;;;;;;;4.43;1.42;;;;;;;;;;5065535;28;20238;-83
2021/05/22 07:27:43;;;;;;;4.88;1.65;;;;;;;;;;5061939;28;20192;-84
2021/05/22 07:30:10;;;;;;;3.53;1.25;;;;;;;;;;5063719;28;20205;-82
2021/05/22 07:32:37;;;;;;;4.38;1.38;;;;;;;;;;5061716;28;20235;-81
2021/05/22 07:35:04;;;;;;;4.18;1.75;;;;;;;;;;5061465;28;20196;-84
2021/05/22 07:37:30;;;;;;;4.78;1.55;;;;;;;;;;5077865;28;20217;-81
2021/05/22 07:39:57;;;;;;;3.47;2.30;;;;;;;;;;5060735;28;20248;-82
2021/05/22 07:42:24;;;;;;;5.13;1.48;;;;;;;;;;5060513;28;20185;-80
2021/05/22 07:44:50;;;;;;;4.32;1.65;;;;;;;;;;5060160;28;20177;-82
2021/05/22 07:47:16;;;;;;;5.05;2.03;;;;;;;;;;5074944;28;20185;-84
2021/05/22 07:49:43;;;;;;;7.80;1.60;;;;;;;;;;5065660;28;20188;-82
2021/05/22 07:52:10;;;;;;;3.50;1.42;;;;;;;;;;5061139;28;20816;-82
2021/05/22 07:54:36;;;;;;;6.85;2.10;;;;;;;;;;5061671;28;20185;-83
2021/05/22 07:57:04;;;;;;;3.35;1.60;;;;;;;;;;5062172;28;20206;-82
2021/05/22 07:59:30;;;;;;;4.57;1.27;;;;;;;;;;5062953;28;20188;-84
2021/05/22 08:01:56;;;;;;;4.40;1.60;;;;;;;;;;5060309;28;20185;-81
2021/05/22 08:04:22;;;;;;;6.78;1.58;;;;;;;;;;5064705;28;20177;-83
2021/05/22 08:06:48;;;;;;;5.45;1.40;;;;;;;;;;5060835;28;20186;-82
2021/05/22 08:09:14;;;;;;;6.35;1.40;;;;;;;;;;5060859;28;20213;-82
2021/05/22 08:11:40;;;;;;;3.55;1.30;;;;;;;;;;5065442;28;20220;-83
2021/05/22 08:14:06;;;;;;;3.33;1.50;;;;;;;;;;5065525;28;20207;-80
2021/05/22 08:16:33;;;;;;;9.07;2.70;;;;;;;;;;5060422;28;20648;-83
2021/05/22 08:18:59;;;;;;;5.97;1.50;;;;;;;;;;5064539;28;20181;-80
2021/05/22 08:21:25;;;;;;;6.33;1.27;;;;;;;;;;5060102;28;20184;-80
2021/05/22 08:23:51;;;;;;;3.58;1.38;;;;;;;;;;5078790;28;20424;-81
2021/05/22 08:26:18;;;;;;;3.42;1.27;;;;;;;;;;5062194;28;20209;-81
2021/05/22 08:28:44;;;;;;;2.47;1.00;;;;;;;;;;5065277;28;20232;-82
2021/05/22 08:31:10;;;;;;;4.75;1.60;;;;;;;;;;5064643;28;20173;-82
2021/05/22 08:33:36;;;;;;;3.50;1.15;;;;;;;;;;5064400;28;20194;-85
2021/05/22 08:36:02;;;;;;;4.95;1.50;;;;;;;;;;5061058;28;20198;-82
2021/05/22 08:38:28;;;;;;;4.50;1.45;;;;;;;;;;5063517;28;20173;-86
2021/05/22 08:40:56;;;;;;;2.28;1.25;;;;;;;;;;5059596;28;20191;-79
2021/05/22 08:43:22;;;;;;;2.95;1.40;;;;;;;;;;5064308;28;20215;-84
2021/05/22 08:45:48;;;;;;;2.00;0.90;;;;;;;;;;5059623;28;20182;-81
2021/05/22 08:48:15;;;;;;;2.55;1.05;;;;;;;;;;5058838;28;20496;-83
2021/05/22 08:50:42;;;;;;;3.92;1.15;;;;;;;;;;5057844;28;20182;-83
2021/05/22 08:53:08;;;;;;;6.60;1.27;;;;;;;;;;5065012;28;20213;-82
2021/05/22 08:55:34;;;;;;;4.30;1.50;;;;;;;;;;5060141;28;20178;-79
2021/05/22 08:58:00;;;;;;;4.72;1.75;;;;;;;;;;5060874;28;20519;-81
2021/05/22 09:00:27;;;;;;;6.88;1.30;;;;;;;;;;5059039;28;20190;-80
2021/05/22 09:02:53;;;;;;;5.40;1.80;;;;;;;;;;5061776;28;20177;-79
2021/05/22 09:05:26;;;;;;;4.63;1.30;;;;;;;;;;5061437;28;20208;-83
2021/05/22 09:07:56;;;;;;;3.00;1.15;;;;;;;;;;5074153;28;20251;-81
2021/05/22 09:10:23;;;;;;;3.58;1.77;;;;;;;;;;5059598;28;20249;-82
2021/05/22 09:12:50;;;;;;;3.50;1.13;;;;;;;;;;5060433;28;20249;-81
2021/05/22 09:15:18;;;;;;;5.03;1.20;;;;;;;;;;5058856;28;20191;-84
2021/05/22 09:17:50;;;;;;;3.53;1.27;;;;;;;;;;5062266;28;20217;-83
2021/05/22 09:20:18;;;;;;;3.85;1.65;;;;;;;;;;5060998;28;20183;-80
2021/05/22 09:22:44;;;;;;;5.43;1.65;;;;;;;;;;5074806;28;20169;-82
2021/05/22 09:25:11;;;;;;;5.07;1.40;;;;;;;;;;5063518;28;20174;-81
2021/05/22 09:27:41;;;;;;;2.45;1.10;;;;;;;;;;5059631;28;20212;-81
2021/05/22 09:30:09;;;;;;;6.85;1.10;;;;;;;;;;5059863;28;20513;-83
2021/05/22 09:32:35;;;;;;;6.05;1.25;;;;;;;;;;5059571;28;20248;-81
2021/05/22 09:35:01;;;;;;;6.20;1.58;;;;;;;;;;5058718;28;20196;-83
2021/05/22 09:37:27;;;;;;;3.50;1.20;;;;;;;;;;5063195;28;20547;-82
2021/05/22 09:39:53;;;;;;;6.22;1.55;;;;;;;;;;5059871;28;20182;-84
2021/05/22 09:42:31;;;;;;;5.70;1.45;;;;;;;;;;5058400;28;20186;-82
2021/05/22 09:45:01;;;;;;;7.95;1.80;;;;;;;;;;5063501;28;20182;-84
2021/05/22 09:47:27;;;;;;;6.75;1.40;;;;;;;;;;5063221;28;20183;-80
2021/05/22 09:49:53;;;;;;;3.00;1.10;;;;;;;;;;5057845;28;20647;-82
2021/05/22 09:52:19;;;;;;;4.88;1.42;;;;;;;;;;5064493;28;20423;-84
2021/05/22 09:54:48;;;;;;;6.40;1.65;;;;;;;;;;5059637;28;20191;-81
2021/05/22 09:57:16;;;;;;;6.22;1.45;;;;;;;;;;5058400;28;20193;-81
2021/05/22 09:59:42;;;;;;;3.72;1.20;;;;;;;;;;5062670;28;20219;-80
2021/05/22 10:02:08;;;;;;;2.03;1.15;;;;;;;;;;5063341;28;20619;-83
2021/05/22 10:04:34;;;;;;;5.50;1.10;;;;;;;;;;5073607;28;20553;-81
2021/05/22 10:07:00;;;;;;;3.83;1.23;;;;;;;;;;5063630;28;20189;-84
2021/05/22 10:09:28;;;;;;;3.63;1.00;;;;;;;;;;5057665;28;20799;-82
2021/05/22 10:12:07;;;;;;;5.07;1.70;;;;;;;;;;5061094;28;20218;-80
2021/05/22 10:14:40;;;;;;;3.03;0.95;;;;;;;;;;5062255;28;20184;-84
2021/05/22 10:17:07;;;;;;;6.03;1.38;;;;;;;;;;5058338;28;20227;-80
2021/05/22 10:19:34;;;;;;;2.35;0.95;;;;;;;;;;5058636;28;20184;-82
2021/05/22 10:22:00;;;;;;;4.72;1.40;;;;;;;;;;5062821;28;20172;-82
2021/05/22 10:24:27;;;;;;;4.57;1.42;;;;;;;;;;5057828;28;20184;-84
2021/05/22 10:26:54;;;;;;;1.92;0.85;;;;;;;;;;5062942;28;20245;-81
2021/05/22 10:29:20;;;;;;;2.83;1.25;;;;;;;;;;5078049;28;20189;-84
2021/05/22 10:31:47;;;;;;;2.65;1.38;;;;;;;;;;5061929;28;20200;-82
2021/05/22 10:34:14;;;;;;;3.03;1.70;;;;;;;;;;5062116;28;20180;-82
2021/05/22 10:36:56;;;;;;;2.25;1.20;;;;;;;;;;5057288;28;20204;-82
2021/05/22 10:39:41;;;;;;;3.17;1.10;;;;;;;;;;5057717;28;20188;-85
2021/05/22 10:42:08;;;;;;;3.13;1.30;;;;;;;;;;5058940;28;20186;-82
2021/05/22 10:44:37;;;;;;;2.55;1.40;;;;;;;;;;5061552;28;20250;-81
2021/05/22 10:47:05;;;;;;;5.77;1.80;;;;;;;;;;5057149;28;20188;-83
2021/05/22 10:49:52;;;;;;;5.43;1.30;;;;;;;;;;5074942;28;20399;-83
2021/05/22 10:52:22;;;;;;;2.03;1.37;;;;;;;;;;5077421;28;20465;-77
2021/05/22 10:54:58;;;;;;;4.57;1.30;;;;;;;;;;5072675;28;20431;-83
2021/05/22 10:57:25;;;;;;;3.10;1.23;;;;;;;;;;5056645;28;20438;-83
2021/05/22 11:00:10;;;;;;;2.40;1.10;;;;;;;;;;5061228;28;20422;-82
2021/05/22 11:02:38;;;;;;;6.30;1.30;;;;;;;;;;5071319;28;20179;-78
2021/05/22 11:05:27;;;;;;;2.85;1.35;;;;;;;;;;5062599;28;20194;-81
2021/05/22 11:08:05;;;;;;;5.75;1.00;;;;;;;;;;5060884;28;20166;-80
2021/05/22 11:10:35;;;;;;;3.65;1.00;;;;;;;;;;5059546;28;20219;-81
2021/05/22 11:13:01;;;;;;;1.73;1.40;;;;;;;;;;5060079;28;20178;-81
2021/05/22 11:15:38;;;;;;;4.28;1.45;;;;;;;;;;5057139;28;20192;-78
2021/05/22 11:18:04;;;;;;;4.72;1.20;;;;;;;;;;5058676;28;20260;-83
2021/05/22 11:20:30;;;;;;;3.72;1.55;;;;;;;;;;5061115;28;20177;-82
2021/05/22 11:22:58;;;;;;;3.73;2.30;;;;;;;;;;5057348;28;20203;-84
2021/05/22 11:25:28;;;;;;;1.77;1.20;;;;;;;;;;5057864;28;20426;-81
2021/05/22 11:28:01;;;;;;;4.38;1.00;;;;;;;;;;5057883;28;20721;-79
2021/05/22 11:30:36;;;;;;;3.70;1.67;;;;;;;;;;5057226;28;20253;-77
2021/05/22 11:33:06;;;;;;;2.63;1.20;;;;;;;;;;5075222;28;20231;-77
2021/05/22 11:35:33;;;;;;;4.47;1.20;;;;;;;;;;5064775;28;20591;-77
2021/05/22 11:38:17;;;;;;;2.30;1.10;;;;;;;;;;5076153;28;20219;-77
2021/05/22 11:40:43;;;;;;;4.55;1.10;;;;;;;;;;5062043;28;20173;-78
2021/05/22 11:43:32;;;;;;;4.10;1.00;;;;;;;;;;5061665;28;20191;-81
2021/05/22 11:46:04;;;;;;;5.35;1.30;;;;;;;;;;5075559;28;20640;-80
2021/05/22 11:48:35;;;;;;;2.95;1.10;;;;;;;;;;5061456;28;20204;-82
2021/05/22 11:51:12;;;;;;;3.40;1.10;;;;;;;;;;5063398;28;20258;-80
2021/05/22 11:53:39;;;;;;;4.90;1.27;;;;;;;;;;5065042;28;20177;-80
2021/05/22 11:56:13;;;;;;;4.50;1.60;;;;;;;;;;5075055;28;20200;-82
2021/05/22 11:58:41;;;;;;;6.35;1.73;;;;;;;;;;5062896;28;20172;-79
2021/05/22 12:01:27;;;;;;;6.90;1.95;;;;;;;;;;5065926;28;20181;-84
2021/05/22 12:03:54;;;;;;;3.72;1.42;;;;;;;;;;5061993;28;20177;-79
2021/05/22 12:06:31;;;;;;;4.55;1.10;;;;;;;;;;5060225;28;20182;-78
2021/05/22 12:09:07;;;;;;;2.33;1.15;;;;;;;;;;5059017;28;20534;-76
2021/05/22 12:11:35;;;;;;;2.53;1.30;;;;;;;;;;5064338;28;20225;-78
2021/05/22 12:14:05;;;;;;;2.88;1.10;;;;;;;;;;5059806;28;20181;-79
2021/05/22 12:16:31;;;;;;;4.63;1.40;;;;;;;;;;5061880;28;20204;-80
2021/05/22 12:18:57;;;;;;;4.85;1.38;;;;;;;;;;5060047;28;20182;-78
2021/05/22 12:21:28;;;;;;;4.90;2.17;;;;;;;;;;5080729;28;20178;-82
2021/05/22 12:24:00;;;;;;;2.90;1.05;;;;;;;;;;5065161;28;20238;-81
2021/05/22 12:26:26;;;;;;;3.40;1.48;;;;;;;;;;5080514;28;20191;-81
2021/05/22 12:28:52;;;;;;;1.10;0.90;;;;;;;;;;5065496;28;20192;-85
2021/05/22 12:31:18;;;;;;;4.43;1.10;;;;;;;;;;5060888;28;20386;-85
2021/05/22 12:33:55;;;;;;;1.23;0.90;;;;;;;;;;5060948;28;20499;-81
2021/05/22 12:36:21;;;;;;;4.67;1.87;;;;;;;;;;5060540;28;20466;-83
2021/05/22 12:38:47;;;;;;;2.80;1.20;;;;;;;;;;5063481;28;20468;-83
2021/05/22 12:41:14;;;;;;;3.37;1.20;;;;;;;;;;5076173;28;20425;-82
2021/05/22 12:43:53;;;;;;;2.70;1.00;;;;;;;;;;5065163;28;20501;-84
2021/05/22 12:46:23;;;;;;;2.40;1.10;;;;;;;;;;5063394;28;20449;-80
2021/05/22 12:48:49;;;;;;;4.55;1.30;;;;;;;;;;5060443;28;20417;-81
2021/05/22 12:51:18;;;;;;;3.28;0.98;;;;;;;;;;5075066;28;20191;-81
2021/05/22 12:53:44;;;;;;;2.72;1.00;;;;;;;;;;5064064;28;20185;-82
2021/05/22 12:56:10;;;;;;;4.73;1.07;;;;;;;;;;5059564;28;20227;-81
2021/05/22 12:58:36;;;;;;;1.58;0.90;;;;;;;;;;5059991;28;20426;-80
2021/05/22 13:01:18;;;;;;;1.35;0.90;;;;;;;;;;5065047;28;20237;-82
2021/05/22 13:03:49;;;;;;;2.25;1.60;;;;;;;;;;5060147;28;20181;-81
2021/05/22 13:06:35;;;;;;;2.35;1.05;;;;;;;;;;5059938;28;20237;-80
2021/05/22 13:09:08;;;;;;;0.88;0.82;;;;;;;;;;5051569;28;20656;-80
2021/05/22 13:11:34;;;;;;;2.05;0.85;;;;;;;;;;5063061;28;20233;-81
2021/05/22 13:14:01;;;;;;;1.50;0.90;;;;;;;;;;5059468;28;20333;-79
2021/05/22 13:16:27;;;;;;;4.20;1.02;;;;;;;;;;5063358;28;20253;-81
2021/05/22 13:18:56;;;;;;;2.70;1.30;;;;;;;;;;5058486;28;20196;-82
2021/05/22 13:21:30;;;;;;;1.00;0.70;;;;;;;;;;5065214;28;20424;-80
2021/05/22 13:23:56;;;;;;;2.15;0.80;;;;;;;;;;5061187;28;20185;-82
2021/05/22 13:26:22;;;;;;;1.13;0.70;;;;;;;;;;5061435;28;20187;-82
2021/05/22 13:28:49;;;;;;;1.43;0.73;;;;;;;;;;5074400;28;20186;-80
2021/05/22 13:31:28;;;;;;;1.70;0.98;;;;;;;;;;5063108;28;20514;-81
2021/05/22 13:33:55;;;;;;;1.75;0.90;;;;;;;;;;5058193;28;20181;-82
2021/05/22 13:36:22;;;;;;;1.60;0.73;;;;;;;;;;5058070;28;20205;-78
2021/05/22 13:38:48;;;;;;;1.92;0.85;;;;;;;;;;5077743;28;20247;-82
2021/05/22 13:41:27;;;;;;;2.05;0.90;;;;;;;;;;5072663;28;20178;-82
2021/05/22 13:43:53;;;;;;;1.17;0.80;;;;;;;;;;5062611;28;20173;-81
2021/05/22 13:46:19;;;;;;;3.28;1.00;;;;;;;;;;5059188;28;20179;-84
2021/05/22 13:48:45;;;;;;;2.07;1.33;;;;;;;;;;5057606;28;20620;-82
2021/05/22 13:51:11;;;;;;;2.60;0.70;;;;;;;;;;5059295;28;20458;-81
2021/05/22 13:53:37;;;;;;;1.95;0.70;;;;;;;;;;5062838;28;20448;-83
2021/05/22 13:56:03;;;;;;;0.65;0.60;;;;;;;;;;5058107;28;20189;-83
2021/05/22 13:58:29;;;;;;;1.20;0.63;;;;;;;;;;5059141;28;20184;-82
2021/05/22 14:00:55;;;;;;;6.00;0.80;;;;;;;;;;5058160;28;20724;-82
2021/05/22 14:03:21;;;;;;;3.13;0.82;;;;;;;;;;5063078;28;20474;-83
2021/05/22 14:05:47;;;;;;;1.50;0.60;;;;;;;;;;5067562;28;20177;-80
2021/05/22 14:08:13;;;;;;;0.77;0.60;;;;;;;;;;5059382;28;20505;-80
2021/05/22 14:10:39;;;;;;;0.80;0.70;;;;;;;;;;5073871;28;20483;-80
2021/05/22 14:13:05;;;;;;;1.38;0.70;;;;;;;;;;5058458;28;20431;-83
2021/05/22 14:15:31;;;;;;;0.50;0.50;;;;;;;;;;5072851;28;20193;-82
2021/05/22 14:18:00;;;;;;;2.67;0.70;;;;;;;;;;5059952;28;20204;-83
2021/05/22 14:20:26;;;;;;;0.70;0.60;;;;;;;;;;5073366;28;20439;-80
2021/05/22 14:22:52;;;;;;;1.40;0.60;;;;;;;;;;5063334;28;20177;-82
2021/05/22 14:25:18;;;;;;;2.00;0.68;;;;;;;;;;5058071;28;20181;-83
2021/05/22 14:27:45;;;;;;;2.47;0.90;;;;;;;;;;5058145;28;20188;-80
2021/05/22 14:30:12;;;;;;;2.17;0.75;;;;;;;;;;5058542;28;20185;-82
2021/05/22 14:32:38;;;;;;;2.88;1.23;;;;;;;;;;5062244;28;20230;-79
2021/05/22 14:35:06;;;;;;;1.70;1.00;;;;;;;;;;5062450;28;20646;-83
2021/05/22 14:37:32;;;;;;;2.15;0.80;;;;;;;;;;5059319;28;20222;-83
2021/05/22 14:39:59;;;;;;;4.00;1.23;;;;;;;;;;5058993;28;20180;-82
2021/05/22 14:42:25;;;;;;;2.88;1.27;;;;;;;;;;5059152;28;20591;-81
2021/05/22 14:44:51;;;;;;;3.50;1.23;;;;;;;;;;5060715;28;20811;-81
2021/05/22 14:47:17;;;;;;;3.63;1.30;;;;;;;;;;5058890;28;20189;-81